Parets del Valles, Spain
Current Conditions -  °F | °C
As of 8:00 AM on Friday 19 Dec 2014 (Local Time) from LELL Reporting Station
Few Clouds Few Clouds  
Wind Chill: 45°   Ceiling: Unl
Heat Index: 45°   Visibility: 6mi
Dew Point: 43°   Wind: 1mph
Humidity: 93%   Direction: NA
Pressure: 30.33"   Gusts: NA
Location:  41.58°N, 2.23°E
Report Text: LELL 190700Z VRB01KT 9999 FEW005 07/06 Q1027
Loading
Personal Weather Stations






























Interactive Weather Map New forecast layout! Learn more

10-Day Weather Forecast

Advertisements
Track Severe Weather on mobile